sensor_id;sensor_type;location;lat;lon;timestamp;temperature;humidity
4518;DHT22;2271;49.464;11.070;2024-03-02T00:00:09;8.20;99.90
4518;DHT22;2271;49.464;11.070;2024-03-02T00:02:47;8.20;99.90
4518;DHT22;2271;49.464;11.070;2024-03-02T00:05:17;8.10;99.90
4518;DHT22;2271;49.464;11.070;2024-03-02T00:07:44;8.10;99.90
4518;DHT22;2271;49.464;11.070;2024-03-02T00:10:13;8.20;99.90
4518;DHT22;2271;49.464;11.070;2024-03-02T00:12:40;8.20;99.90
4518;DHT22;2271;49.464;11.070;2024-03-02T00:17:56;8.20;99.90
4518;DHT22;2271;49.464;11.070;2024-03-02T00:20:22;8.10;99.90
4518;DHT22;2271;49.464;11.070;2024-03-02T00:22:49;8.10;99.90
4518;DHT22;2271;49.464;11.070;2024-03-02T00:25:16;8.10;99.90
4518;DHT22;2271;49.464;11.070;2024-03-02T00:27:41;8.10;99.90
4518;DHT22;2271;49.464;11.070;2024-03-02T00:33:02;8.10;99.90
4518;DHT22;2271;49.464;11.070;2024-03-02T00:35:32;8.10;99.90
4518;DHT22;2271;49.464;11.070;2024-03-02T00:37:58;8.10;99.90
4518;DHT22;2271;49.464;11.070;2024-03-02T00:40:29;8.10;99.90
4518;DHT22;2271;49.464;11.070;2024-03-02T00:42:56;8.10;99.90
4518;DHT22;2271;49.464;11.070;2024-03-02T00:45:21;8.10;99.90
4518;DHT22;2271;49.464;11.070;2024-03-02T00:47:47;8.20;99.90
4518;DHT22;2271;49.464;11.070;2024-03-02T00:50:13;8.20;99.90
4518;DHT22;2271;49.464;11.070;2024-03-02T00:52:40;8.10;99.90
4518;DHT22;2271;49.464;11.070;2024-03-02T00:55:07;8.10;99.90
4518;DHT22;2271;49.464;11.070;2024-03-02T00:57:34;8.10;99.90
4518;DHT22;2271;49.464;11.070;2024-03-02T01:00:00;8.20;99.90
4518;DHT22;2271;49.464;11.070;2024-03-02T01:02:26;8.20;99.90
4518;DHT22;2271;49.464;11.070;2024-03-02T01:04:52;8.20;99.90
4518;DHT22;2271;49.464;11.070;2024-03-02T01:07:18;8.20;99.90
4518;DHT22;2271;49.464;11.070;2024-03-02T01:09:43;8.10;99.90
4518;DHT22;2271;49.464;11.070;2024-03-02T01:12:10;8.20;99.90
4518;DHT22;2271;49.464;11.070;2024-03-02T01:14:36;8.20;99.90
4518;DHT22;2271;49.464;11.070;2024-03-02T01:17:01;8.10;99.90
4518;DHT22;2271;49.464;11.070;2024-03-02T01:19:30;8.10;99.90
4518;DHT22;2271;49.464;11.070;2024-03-02T01:21:55;8.20;99.90
4518;DHT22;2271;49.464;11.070;2024-03-02T01:24:21;8.20;99.90
4518;DHT22;2271;49.464;11.070;2024-03-02T01:26:46;8.20;99.90
4518;DHT22;2271;49.464;11.070;2024-03-02T01:29:12;8.20;99.90
4518;DHT22;2271;49.464;11.070;2024-03-02T01:31:38;8.20;99.90
4518;DHT22;2271;49.464;11.070;2024-03-02T01:34:07;8.20;99.90
4518;DHT22;2271;49.464;11.070;2024-03-02T01:36:33;8.20;99.90
4518;DHT22;2271;49.464;11.070;2024-03-02T01:38:59;8.30;99.90
4518;DHT22;2271;49.464;11.070;2024-03-02T01:41:24;8.30;99.90
4518;DHT22;2271;49.464;11.070;2024-03-02T01:43:50;8.30;99.90
4518;DHT22;2271;49.464;11.070;2024-03-02T01:46:16;8.20;99.90
4518;DHT22;2271;49.464;11.070;2024-03-02T01:48:41;8.20;99.90
4518;DHT22;2271;49.464;11.070;2024-03-02T01:51:07;8.30;99.90
4518;DHT22;2271;49.464;11.070;2024-03-02T01:53:34;8.20;99.90
4518;DHT22;2271;49.464;11.070;2024-03-02T01:56:00;8.20;99.90
4518;DHT22;2271;49.464;11.070;2024-03-02T01:58:27;8.20;99.90
4518;DHT22;2271;49.464;11.070;2024-03-02T02:00:52;8.20;99.90
4518;DHT22;2271;49.464;11.070;2024-03-02T02:03:18;8.20;99.90
4518;DHT22;2271;49.464;11.070;2024-03-02T02:05:44;8.20;99.90
4518;DHT22;2271;49.464;11.070;2024-03-02T02:08:10;8.20;99.90
4518;DHT22;2271;49.464;11.070;2024-03-02T02:10:36;8.20;99.90
4518;DHT22;2271;49.464;11.070;2024-03-02T02:13:02;8.20;99.90
4518;DHT22;2271;49.464;11.070;2024-03-02T02:15:31;8.20;99.90
4518;DHT22;2271;49.464;11.070;2024-03-02T02:17:58;8.20;99.90
4518;DHT22;2271;49.464;11.070;2024-03-02T02:20:24;8.10;99.90
4518;DHT22;2271;49.464;11.070;2024-03-02T02:22:56;8.10;99.90
4518;DHT22;2271;49.464;11.070;2024-03-02T02:25:22;8.10;99.90
4518;DHT22;2271;49.464;11.070;2024-03-02T02:27:48;8.10;99.90
4518;DHT22;2271;49.464;11.070;2024-03-02T02:30:17;8.10;99.90
4518;DHT22;2271;49.464;11.070;2024-03-02T02:32:43;8.10;99.90
4518;DHT22;2271;49.464;11.070;2024-03-02T02:35:09;8.00;99.90
4518;DHT22;2271;49.464;11.070;2024-03-02T02:37:34;8.00;99.90
4518;DHT22;2271;49.464;11.070;2024-03-02T02:40:00;8.00;99.90
4518;DHT22;2271;49.464;11.070;2024-03-02T02:42:26;8.00;99.90
4518;DHT22;2271;49.464;11.070;2024-03-02T02:44:51;8.10;99.90
4518;DHT22;2271;49.464;11.070;2024-03-02T02:47:17;8.10;99.90
4518;DHT22;2271;49.464;11.070;2024-03-02T02:49:42;8.00;99.90
4518;DHT22;2271;49.464;11.070;2024-03-02T02:52:08;8.00;99.90
4518;DHT22;2271;49.464;11.070;2024-03-02T02:54:34;8.00;99.90
4518;DHT22;2271;49.464;11.070;2024-03-02T02:56:59;8.00;99.90
4518;DHT22;2271;49.464;11.070;2024-03-02T02:59:25;8.10;99.90
4518;DHT22;2271;49.464;11.070;2024-03-02T03:01:51;8.10;99.90
4518;DHT22;2271;49.464;11.070;2024-03-02T03:04:17;8.10;99.90
4518;DHT22;2271;49.464;11.070;2024-03-02T03:06:43;8.10;99.90
4518;DHT22;2271;49.464;11.070;2024-03-02T03:09:09;8.10;99.90
4518;DHT22;2271;49.464;11.070;2024-03-02T03:11:36;8.10;99.90
4518;DHT22;2271;49.464;11.070;2024-03-02T03:14:02;8.10;99.90
4518;DHT22;2271;49.464;11.070;2024-03-02T03:16:28;8.10;99.90
4518;DHT22;2271;49.464;11.070;2024-03-02T03:18:59;8.10;99.90
4518;DHT22;2271;49.464;11.070;2024-03-02T03:21:25;8.10;99.90
4518;DHT22;2271;49.464;11.070;2024-03-02T03:23:51;8.10;99.90
4518;DHT22;2271;49.464;11.070;2024-03-02T03:26:16;8.10;99.90
4518;DHT22;2271;49.464;11.070;2024-03-02T03:28:42;8.10;99.90
4518;DHT22;2271;49.464;11.070;2024-03-02T03:31:07;8.10;99.90
4518;DHT22;2271;49.464;11.070;2024-03-02T03:33:33;8.10;99.90
4518;DHT22;2271;49.464;11.070;2024-03-02T03:35:58;8.10;99.90
4518;DHT22;2271;49.464;11.070;2024-03-02T03:38:24;8.10;99.90
4518;DHT22;2271;49.464;11.070;2024-03-02T03:40:49;8.00;99.90
4518;DHT22;2271;49.464;11.070;2024-03-02T03:43:16;8.00;99.90
4518;DHT22;2271;49.464;11.070;2024-03-02T03:45:41;8.00;99.90
4518;DHT22;2271;49.464;11.070;2024-03-02T03:48:07;8.00;99.90
4518;DHT22;2271;49.464;11.070;2024-03-02T03:50:32;8.00;99.90
4518;DHT22;2271;49.464;11.070;2024-03-02T03:52:58;8.00;99.90
4518;DHT22;2271;49.464;11.070;2024-03-02T03:55:24;8.00;99.90
4518;DHT22;2271;49.464;11.070;2024-03-02T03:57:49;8.00;99.90
4518;DHT22;2271;49.464;11.070;2024-03-02T04:00:15;8.00;99.90
4518;DHT22;2271;49.464;11.070;2024-03-02T04:02:41;8.00;99.90
4518;DHT22;2271;49.464;11.070;2024-03-02T04:05:07;8.10;99.90
4518;DHT22;2271;49.464;11.070;2024-03-02T04:07:37;8.10;99.90
4518;DHT22;2271;49.464;11.070;2024-03-02T04:10:10;8.20;99.90
4518;DHT22;2271;49.464;11.070;2024-03-02T04:12:36;8.20;99.90
4518;DHT22;2271;49.464;11.070;2024-03-02T04:15:04;8.10;99.90
4518;DHT22;2271;49.464;11.070;2024-03-02T04:17:31;8.10;99.90
4518;DHT22;2271;49.464;11.070;2024-03-02T04:19:58;8.00;99.90
4518;DHT22;2271;49.464;11.070;2024-03-02T04:22:24;8.00;99.90
4518;DHT22;2271;49.464;11.070;2024-03-02T04:24:49;8.00;99.90
4518;DHT22;2271;49.464;11.070;2024-03-02T04:27:15;8.00;99.90
4518;DHT22;2271;49.464;11.070;2024-03-02T04:29:40;8.00;99.90
4518;DHT22;2271;49.464;11.070;2024-03-02T04:32:06;8.00;99.90
4518;DHT22;2271;49.464;11.070;2024-03-02T04:34:32;8.00;99.90
4518;DHT22;2271;49.464;11.070;2024-03-02T04:36:57;8.00;99.90
4518;DHT22;2271;49.464;11.070;2024-03-02T04:39:23;7.90;99.90
4518;DHT22;2271;49.464;11.070;2024-03-02T04:41:50;7.90;99.90
4518;DHT22;2271;49.464;11.070;2024-03-02T04:44:15;7.80;99.90
4518;DHT22;2271;49.464;11.070;2024-03-02T04:46:41;7.90;99.90
4518;DHT22;2271;49.464;11.070;2024-03-02T04:49:07;7.90;99.90
4518;DHT22;2271;49.464;11.070;2024-03-02T04:51:32;7.90;99.90
4518;DHT22;2271;49.464;11.070;2024-03-02T04:53:58;7.80;99.90
4518;DHT22;2271;49.464;11.070;2024-03-02T04:56:24;7.80;99.90
4518;DHT22;2271;49.464;11.070;2024-03-02T04:58:59;7.80;99.90
4518;DHT22;2271;49.464;11.070;2024-03-02T05:01:24;7.90;99.90
4518;DHT22;2271;49.464;11.070;2024-03-02T05:03:50;7.90;99.90
4518;DHT22;2271;49.464;11.070;2024-03-02T05:06:16;7.90;99.90
4518;DHT22;2271;49.464;11.070;2024-03-02T05:08:41;7.90;99.90
4518;DHT22;2271;49.464;11.070;2024-03-02T05:11:07;7.90;99.90
4518;DHT22;2271;49.464;11.070;2024-03-02T05:13:51;7.90;99.90
4518;DHT22;2271;49.464;11.070;2024-03-02T05:16:17;7.80;99.90
4518;DHT22;2271;49.464;11.070;2024-03-02T05:18:42;7.80;99.90
4518;DHT22;2271;49.464;11.070;2024-03-02T05:21:08;7.80;99.90
4518;DHT22;2271;49.464;11.070;2024-03-02T05:23:33;7.80;99.90
4518;DHT22;2271;49.464;11.070;2024-03-02T05:25:59;7.70;99.90
4518;DHT22;2271;49.464;11.070;2024-03-02T05:28:24;7.70;99.90
4518;DHT22;2271;49.464;11.070;2024-03-02T05:30:50;7.60;99.90
4518;DHT22;2271;49.464;11.070;2024-03-02T05:33:16;7.60;99.90
4518;DHT22;2271;49.464;11.070;2024-03-02T05:35:42;7.60;99.90
4518;DHT22;2271;49.464;11.070;2024-03-02T05:38:09;7.60;99.90
4518;DHT22;2271;49.464;11.070;2024-03-02T05:40:34;7.60;99.90
4518;DHT22;2271;49.464;11.070;2024-03-02T05:43:00;7.50;99.90
4518;DHT22;2271;49.464;11.070;2024-03-02T05:45:25;7.50;99.90
4518;DHT22;2271;49.464;11.070;2024-03-02T05:47:51;7.50;99.90
4518;DHT22;2271;49.464;11.070;2024-03-02T05:50:16;7.50;99.90
4518;DHT22;2271;49.464;11.070;2024-03-02T05:52:42;7.40;99.90
4518;DHT22;2271;49.464;11.070;2024-03-02T05:55:08;7.40;99.90
4518;DHT22;2271;49.464;11.070;2024-03-02T05:57:33;7.40;99.90
4518;DHT22;2271;49.464;11.070;2024-03-02T06:00:14;7.40;99.90
4518;DHT22;2271;49.464;11.070;2024-03-02T06:02:42;7.40;99.90
4518;DHT22;2271;49.464;11.070;2024-03-02T06:05:08;7.40;99.90
4518;DHT22;2271;49.464;11.070;2024-03-02T06:07:34;7.40;99.90
4518;DHT22;2271;49.464;11.070;2024-03-02T06:10:00;7.30;99.90
4518;DHT22;2271;49.464;11.070;2024-03-02T06:12:25;7.30;99.90
4518;DHT22;2271;49.464;11.070;2024-03-02T06:14:51;7.40;99.90
4518;DHT22;2271;49.464;11.070;2024-03-02T06:17:16;7.40;99.90
4518;DHT22;2271;49.464;11.070;2024-03-02T06:19:42;7.40;99.90
4518;DHT22;2271;49.464;11.070;2024-03-02T06:22:08;7.30;99.90
4518;DHT22;2271;49.464;11.070;2024-03-02T06:24:36;7.30;99.90
4518;DHT22;2271;49.464;11.070;2024-03-02T06:27:03;8.50;99.90
4518;DHT22;2271;49.464;11.070;2024-03-02T06:29:29;9.20;99.90
4518;DHT22;2271;49.464;11.070;2024-03-02T06:31:55;8.80;99.90
4518;DHT22;2271;49.464;11.070;2024-03-02T06:34:20;8.40;99.90
4518;DHT22;2271;49.464;11.070;2024-03-02T06:36:46;8.10;99.90
4518;DHT22;2271;49.464;11.070;2024-03-02T06:39:12;8.00;99.90
4518;DHT22;2271;49.464;11.070;2024-03-02T06:41:38;7.80;99.90
4518;DHT22;2271;49.464;11.070;2024-03-02T06:44:03;7.60;99.90
4518;DHT22;2271;49.464;11.070;2024-03-02T06:46:29;7.60;99.90
4518;DHT22;2271;49.464;11.070;2024-03-02T06:48:55;7.60;99.90
4518;DHT22;2271;49.464;11.070;2024-03-02T06:51:20;7.50;99.90
4518;DHT22;2271;49.464;11.070;2024-03-02T06:53:46;7.50;99.90
4518;DHT22;2271;49.464;11.070;2024-03-02T06:56:12;7.50;99.90
4518;DHT22;2271;49.464;11.070;2024-03-02T06:58:37;7.60;99.90
4518;DHT22;2271;49.464;11.070;2024-03-02T07:01:03;7.60;99.90
4518;DHT22;2271;49.464;11.070;2024-03-02T07:03:29;7.70;99.90
4518;DHT22;2271;49.464;11.070;2024-03-02T07:05:54;7.70;99.90
4518;DHT22;2271;49.464;11.070;2024-03-02T07:08:20;7.70;99.90
4518;DHT22;2271;49.464;11.070;2024-03-02T07:10:46;7.80;99.90
4518;DHT22;2271;49.464;11.070;2024-03-02T07:13:12;7.80;99.90
4518;DHT22;2271;49.464;11.070;2024-03-02T07:15:38;7.80;99.90
4518;DHT22;2271;49.464;11.070;2024-03-02T07:18:22;7.80;99.90
4518;DHT22;2271;49.464;11.070;2024-03-02T07:20:48;8.00;99.90
4518;DHT22;2271;49.464;11.070;2024-03-02T07:23:15;8.10;99.90
4518;DHT22;2271;49.464;11.070;2024-03-02T07:25:40;8.30;99.90
4518;DHT22;2271;49.464;11.070;2024-03-02T07:28:06;8.50;99.90
4518;DHT22;2271;49.464;11.070;2024-03-02T07:30:33;8.60;99.90
4518;DHT22;2271;49.464;11.070;2024-03-02T07:32:59;8.70;99.90
4518;DHT22;2271;49.464;11.070;2024-03-02T07:35:25;8.80;99.90
4518;DHT22;2271;49.464;11.070;2024-03-02T07:37:54;8.80;99.90
4518;DHT22;2271;49.464;11.070;2024-03-02T07:40:20;8.80;99.90
4518;DHT22;2271;49.464;11.070;2024-03-02T07:42:46;8.80;99.90
4518;DHT22;2271;49.464;11.070;2024-03-02T07:45:12;8.80;99.90
4518;DHT22;2271;49.464;11.070;2024-03-02T07:47:37;8.80;99.90
4518;DHT22;2271;49.464;11.070;2024-03-02T07:50:03;8.70;99.90
4518;DHT22;2271;49.464;11.070;2024-03-02T07:52:32;8.80;99.90
4518;DHT22;2271;49.464;11.070;2024-03-02T07:54:57;8.70;99.90
4518;DHT22;2271;49.464;11.070;2024-03-02T07:57:23;8.70;99.90
4518;DHT22;2271;49.464;11.070;2024-03-02T07:59:49;8.70;99.90
4518;DHT22;2271;49.464;11.070;2024-03-02T08:02:15;8.70;99.90
4518;DHT22;2271;49.464;11.070;2024-03-02T08:04:41;8.70;99.90
4518;DHT22;2271;49.464;11.070;2024-03-02T08:07:06;8.70;99.90
4518;DHT22;2271;49.464;11.070;2024-03-02T08:09:32;8.60;99.90
4518;DHT22;2271;49.464;11.070;2024-03-02T08:11:58;8.60;99.90
4518;DHT22;2271;49.464;11.070;2024-03-02T08:14:23;8.60;99.90
4518;DHT22;2271;49.464;11.070;2024-03-02T08:16:51;8.60;99.90
4518;DHT22;2271;49.464;11.070;2024-03-02T08:19:16;8.70;99.90
4518;DHT22;2271;49.464;11.070;2024-03-02T08:21:43;8.70;99.90
4518;DHT22;2271;49.464;11.070;2024-03-02T08:24:09;8.70;99.90
4518;DHT22;2271;49.464;11.070;2024-03-02T08:26:34;8.70;99.90
4518;DHT22;2271;49.464;11.070;2024-03-02T08:29:00;8.70;99.90
4518;DHT22;2271;49.464;11.070;2024-03-02T08:31:30;8.70;99.90
4518;DHT22;2271;49.464;11.070;2024-03-02T08:33:55;8.80;99.90
4518;DHT22;2271;49.464;11.070;2024-03-02T08:36:22;8.80;99.90
4518;DHT22;2271;49.464;11.070;2024-03-02T08:38:49;8.90;99.90
4518;DHT22;2271;49.464;11.070;2024-03-02T08:41:15;8.90;99.90
4518;DHT22;2271;49.464;11.070;2024-03-02T08:43:42;8.90;99.90
4518;DHT22;2271;49.464;11.070;2024-03-02T08:46:08;9.00;99.90
4518;DHT22;2271;49.464;11.070;2024-03-02T08:48:34;9.00;99.90
4518;DHT22;2271;49.464;11.070;2024-03-02T08:51:00;9.20;99.90
4518;DHT22;2271;49.464;11.070;2024-03-02T08:53:25;9.20;99.90
4518;DHT22;2271;49.464;11.070;2024-03-02T08:55:51;9.30;99.90
4518;DHT22;2271;49.464;11.070;2024-03-02T08:58:20;9.90;99.90
4518;DHT22;2271;49.464;11.070;2024-03-02T09:00:47;9.90;99.90
4518;DHT22;2271;49.464;11.070;2024-03-02T09:03:13;9.90;99.90
4518;DHT22;2271;49.464;11.070;2024-03-02T09:05:38;9.70;99.90
4518;DHT22;2271;49.464;11.070;2024-03-02T09:08:04;9.60;99.90
4518;DHT22;2271;49.464;11.070;2024-03-02T09:10:30;9.50;99.90
4518;DHT22;2271;49.464;11.070;2024-03-02T09:12:56;9.50;99.90
4518;DHT22;2271;49.464;11.070;2024-03-02T09:15:21;9.50;99.90
4518;DHT22;2271;49.464;11.070;2024-03-02T09:17:47;9.50;99.90
4518;DHT22;2271;49.464;11.070;2024-03-02T09:20:12;9.50;99.90
4518;DHT22;2271;49.464;11.070;2024-03-02T09:22:39;9.60;99.90
4518;DHT22;2271;49.464;11.070;2024-03-02T09:25:05;9.60;99.90
4518;DHT22;2271;49.464;11.070;2024-03-02T09:27:32;9.70;99.90
4518;DHT22;2271;49.464;11.070;2024-03-02T09:29:58;9.70;99.90
4518;DHT22;2271;49.464;11.070;2024-03-02T09:32:23;9.70;99.90
4518;DHT22;2271;49.464;11.070;2024-03-02T09:34:49;9.80;99.90
4518;DHT22;2271;49.464;11.070;2024-03-02T09:37:15;9.80;99.90
4518;DHT22;2271;49.464;11.070;2024-03-02T09:39:43;10.00;99.90
4518;DHT22;2271;49.464;11.070;2024-03-02T09:42:10;10.00;99.90
4518;DHT22;2271;49.464;11.070;2024-03-02T09:44:37;10.00;99.90
4518;DHT22;2271;49.464;11.070;2024-03-02T09:47:02;10.00;99.90
4518;DHT22;2271;49.464;11.070;2024-03-02T09:49:28;10.10;99.90
4518;DHT22;2271;49.464;11.070;2024-03-02T09:51:54;10.20;99.90
4518;DHT22;2271;49.464;11.070;2024-03-02T09:54:19;10.20;99.90
4518;DHT22;2271;49.464;11.070;2024-03-02T09:56:46;10.30;99.90
4518;DHT22;2271;49.464;11.070;2024-03-02T09:59:12;10.30;99.90
4518;DHT22;2271;49.464;11.070;2024-03-02T10:01:58;10.40;99.90
4518;DHT22;2271;49.464;11.070;2024-03-02T10:04:28;10.40;99.90
4518;DHT22;2271;49.464;11.070;2024-03-02T10:07:16;10.50;99.90
4518;DHT22;2271;49.464;11.070;2024-03-02T10:09:43;10.50;99.90
4518;DHT22;2271;49.464;11.070;2024-03-02T10:12:10;10.70;99.90
4518;DHT22;2271;49.464;11.070;2024-03-02T10:14:40;10.70;99.90
4518;DHT22;2271;49.464;11.070;2024-03-02T10:17:11;10.80;99.90
4518;DHT22;2271;49.464;11.070;2024-03-02T10:19:38;10.90;99.90
4518;DHT22;2271;49.464;11.070;2024-03-02T10:22:05;11.00;99.90
4518;DHT22;2271;49.464;11.070;2024-03-02T10:27:09;11.00;99.90
4518;DHT22;2271;49.464;11.070;2024-03-02T10:29:39;11.10;99.90
4518;DHT22;2271;49.464;11.070;2024-03-02T10:32:11;11.20;99.90
4518;DHT22;2271;49.464;11.070;2024-03-02T10:34:39;11.30;99.90
4518;DHT22;2271;49.464;11.070;2024-03-02T10:37:06;11.40;99.90
4518;DHT22;2271;49.464;11.070;2024-03-02T10:39:34;11.50;99.90
4518;DHT22;2271;49.464;11.070;2024-03-02T10:42:05;11.50;99.90
4518;DHT22;2271;49.464;11.070;2024-03-02T10:44:31;11.50;99.90
4518;DHT22;2271;49.464;11.070;2024-03-02T10:47:00;11.50;99.90
4518;DHT22;2271;49.464;11.070;2024-03-02T10:49:29;11.50;99.90
4518;DHT22;2271;49.464;11.070;2024-03-02T10:51:56;11.60;99.90
4518;DHT22;2271;49.464;11.070;2024-03-02T10:54:22;11.60;99.90
4518;DHT22;2271;49.464;11.070;2024-03-02T10:56:53;11.60;99.90
4518;DHT22;2271;49.464;11.070;2024-03-02T10:59:32;11.60;99.90
4518;DHT22;2271;49.464;11.070;2024-03-02T11:02:00;11.70;99.90
4518;DHT22;2271;49.464;11.070;2024-03-02T11:04:28;11.90;99.90
4518;DHT22;2271;49.464;11.070;2024-03-02T11:07:10;11.90;99.90
4518;DHT22;2271;49.464;11.070;2024-03-02T11:09:56;11.80;99.90
4518;DHT22;2271;49.464;11.070;2024-03-02T11:12:28;11.60;99.90
4518;DHT22;2271;49.464;11.070;2024-03-02T11:14:55;11.50;99.90
4518;DHT22;2271;49.464;11.070;2024-03-02T11:17:21;11.40;99.90
4518;DHT22;2271;49.464;11.070;2024-03-02T11:19:49;11.50;99.90
4518;DHT22;2271;49.464;11.070;2024-03-02T11:22:16;11.40;99.90
4518;DHT22;2271;49.464;11.070;2024-03-02T11:24:51;11.40;99.90
4518;DHT22;2271;49.464;11.070;2024-03-02T11:32:57;11.60;99.90
4518;DHT22;2271;49.464;11.070;2024-03-02T11:35:27;11.60;99.90
4518;DHT22;2271;49.464;11.070;2024-03-02T11:37:55;11.60;99.90
4518;DHT22;2271;49.464;11.070;2024-03-02T11:40:27;11.50;99.90
4518;DHT22;2271;49.464;11.070;2024-03-02T11:42:54;11.40;99.90
4518;DHT22;2271;49.464;11.070;2024-03-02T11:45:25;11.40;99.90
4518;DHT22;2271;49.464;11.070;2024-03-02T11:47:54;11.40;99.90
4518;DHT22;2271;49.464;11.070;2024-03-02T11:50:36;11.40;99.90
4518;DHT22;2271;49.464;11.070;2024-03-02T11:53:09;11.30;99.90
4518;DHT22;2271;49.464;11.070;2024-03-02T11:55:36;11.30;99.90
4518;DHT22;2271;49.464;11.070;2024-03-02T11:58:03;11.30;99.90
4518;DHT22;2271;49.464;11.070;2024-03-02T12:00:29;11.30;99.90
4518;DHT22;2271;49.464;11.070;2024-03-02T12:03:02;11.40;99.90
4518;DHT22;2271;49.464;11.070;2024-03-02T12:05:30;11.40;99.90
4518;DHT22;2271;49.464;11.070;2024-03-02T12:08:00;11.40;99.90
4518;DHT22;2271;49.464;11.070;2024-03-02T12:10:26;11.40;99.90
4518;DHT22;2271;49.464;11.070;2024-03-02T12:13:10;11.40;99.90
4518;DHT22;2271;49.464;11.070;2024-03-02T12:15:39;11.40;99.90
4518;DHT22;2271;49.464;11.070;2024-03-02T12:18:05;11.50;99.90
4518;DHT22;2271;49.464;11.070;2024-03-02T12:20:33;11.50;99.90
4518;DHT22;2271;49.464;11.070;2024-03-02T12:23:02;11.50;99.90
4518;DHT22;2271;49.464;11.070;2024-03-02T12:25:30;11.50;99.90
4518;DHT22;2271;49.464;11.070;2024-03-02T12:28:00;11.50;99.90
4518;DHT22;2271;49.464;11.070;2024-03-02T12:30:29;11.50;99.90
4518;DHT22;2271;49.464;11.070;2024-03-02T12:32:55;11.50;99.90
4518;DHT22;2271;49.464;11.070;2024-03-02T12:35:20;11.50;99.90
4518;DHT22;2271;49.464;11.070;2024-03-02T12:37:51;11.60;99.90
4518;DHT22;2271;49.464;11.070;2024-03-02T12:40:19;11.70;99.90
4518;DHT22;2271;49.464;11.070;2024-03-02T12:42:48;11.60;99.90
4518;DHT22;2271;49.464;11.070;2024-03-02T12:45:15;11.60;99.90
4518;DHT22;2271;49.464;11.070;2024-03-02T12:47:42;11.60;99.90
4518;DHT22;2271;49.464;11.070;2024-03-02T12:50:09;11.50;99.90
4518;DHT22;2271;49.464;11.070;2024-03-02T12:52:35;11.60;99.90
4518;DHT22;2271;49.464;11.070;2024-03-02T12:55:05;11.60;99.90
4518;DHT22;2271;49.464;11.070;2024-03-02T12:57:33;11.80;99.90
4518;DHT22;2271;49.464;11.070;2024-03-02T13:00:03;11.70;99.90
4518;DHT22;2271;49.464;11.070;2024-03-02T13:02:36;11.60;99.90
4518;DHT22;2271;49.464;11.070;2024-03-02T13:05:02;11.60;99.90
4518;DHT22;2271;49.464;11.070;2024-03-02T13:07:29;11.80;99.90
4518;DHT22;2271;49.464;11.070;2024-03-02T13:09:55;12.40;99.90
4518;DHT22;2271;49.464;11.070;2024-03-02T13:12:22;12.70;99.90
4518;DHT22;2271;49.464;11.070;2024-03-02T13:14:53;12.80;99.90
4518;DHT22;2271;49.464;11.070;2024-03-02T13:17:19;12.70;99.90
4518;DHT22;2271;49.464;11.070;2024-03-02T13:19:56;12.70;99.90
4518;DHT22;2271;49.464;11.070;2024-03-02T13:22:21;12.80;99.90
4518;DHT22;2271;49.464;11.070;2024-03-02T13:24:48;12.90;99.90
4518;DHT22;2271;49.464;11.070;2024-03-02T13:27:14;13.00;99.90
4518;DHT22;2271;49.464;11.070;2024-03-02T13:29:39;13.10;99.90
4518;DHT22;2271;49.464;11.070;2024-03-02T13:32:06;13.10;99.90
4518;DHT22;2271;49.464;11.070;2024-03-02T13:34:31;13.10;99.90
4518;DHT22;2271;49.464;11.070;2024-03-02T13:36:57;13.10;99.90
4518;DHT22;2271;49.464;11.070;2024-03-02T13:39:23;13.10;99.90
4518;DHT22;2271;49.464;11.070;2024-03-02T13:41:49;13.10;99.90
4518;DHT22;2271;49.464;11.070;2024-03-02T13:44:19;13.00;99.90
4518;DHT22;2271;49.464;11.070;2024-03-02T13:46:45;13.10;99.90
4518;DHT22;2271;49.464;11.070;2024-03-02T13:49:11;13.10;99.90
4518;DHT22;2271;49.464;11.070;2024-03-02T13:51:37;13.10;99.90
4518;DHT22;2271;49.464;11.070;2024-03-02T13:54:03;13.20;99.90
4518;DHT22;2271;49.464;11.070;2024-03-02T13:56:29;13.20;99.90
4518;DHT22;2271;49.464;11.070;2024-03-02T13:58:55;13.20;99.90
4518;DHT22;2271;49.464;11.070;2024-03-02T14:01:21;13.20;99.90
4518;DHT22;2271;49.464;11.070;2024-03-02T14:03:47;13.20;99.90
4518;DHT22;2271;49.464;11.070;2024-03-02T14:06:13;13.20;99.90
4518;DHT22;2271;49.464;11.070;2024-03-02T14:08:39;13.20;99.90
4518;DHT22;2271;49.464;11.070;2024-03-02T14:11:04;13.30;99.90
4518;DHT22;2271;49.464;11.070;2024-03-02T14:13:30;13.30;99.90
4518;DHT22;2271;49.464;11.070;2024-03-02T14:15:56;13.30;99.90
4518;DHT22;2271;49.464;11.070;2024-03-02T14:18:21;13.30;99.90
4518;DHT22;2271;49.464;11.070;2024-03-02T14:20:47;13.30;99.90
4518;DHT22;2271;49.464;11.070;2024-03-02T14:23:18;13.20;99.90
4518;DHT22;2271;49.464;11.070;2024-03-02T14:25:45;13.20;99.90
4518;DHT22;2271;49.464;11.070;2024-03-02T14:28:10;13.10;99.90
4518;DHT22;2271;49.464;11.070;2024-03-02T14:30:37;13.10;99.90
4518;DHT22;2271;49.464;11.070;2024-03-02T14:33:03;13.10;99.90
4518;DHT22;2271;49.464;11.070;2024-03-02T14:35:28;13.10;99.90
4518;DHT22;2271;49.464;11.070;2024-03-02T14:37:54;13.00;99.90
4518;DHT22;2271;49.464;11.070;2024-03-02T14:40:23;13.00;99.90
4518;DHT22;2271;49.464;11.070;2024-03-02T14:42:52;12.90;99.90
4518;DHT22;2271;49.464;11.070;2024-03-02T14:45:17;12.80;99.90
4518;DHT22;2271;49.464;11.070;2024-03-02T14:47:43;12.70;99.90
4518;DHT22;2271;49.464;11.070;2024-03-02T14:50:09;12.70;99.90
4518;DHT22;2271;49.464;11.070;2024-03-02T14:52:35;12.70;99.90
4518;DHT22;2271;49.464;11.070;2024-03-02T14:55:01;12.70;99.90
4518;DHT22;2271;49.464;11.070;2024-03-02T14:57:29;12.70;99.90
4518;DHT22;2271;49.464;11.070;2024-03-02T14:59:55;12.70;99.90
4518;DHT22;2271;49.464;11.070;2024-03-02T15:02:21;12.70;99.90
4518;DHT22;2271;49.464;11.070;2024-03-02T15:04:47;12.70;99.90
4518;DHT22;2271;49.464;11.070;2024-03-02T15:07:13;12.70;99.90
4518;DHT22;2271;49.464;11.070;2024-03-02T15:09:39;12.60;99.90
4518;DHT22;2271;49.464;11.070;2024-03-02T15:12:06;12.60;99.90
4518;DHT22;2271;49.464;11.070;2024-03-02T15:14:34;12.50;99.90
4518;DHT22;2271;49.464;11.070;2024-03-02T15:17:00;12.50;99.90
4518;DHT22;2271;49.464;11.070;2024-03-02T15:19:26;12.50;99.90
4518;DHT22;2271;49.464;11.070;2024-03-02T15:21:51;12.40;99.90
4518;DHT22;2271;49.464;11.070;2024-03-02T15:24:17;12.50;99.90
4518;DHT22;2271;49.464;11.070;2024-03-02T15:26:42;12.50;99.90
4518;DHT22;2271;49.464;11.070;2024-03-02T15:29:08;12.50;99.90
4518;DHT22;2271;49.464;11.070;2024-03-02T15:31:34;12.40;99.90
4518;DHT22;2271;49.464;11.070;2024-03-02T15:33:59;12.30;99.90
4518;DHT22;2271;49.464;11.070;2024-03-02T15:36:25;12.30;99.90
4518;DHT22;2271;49.464;11.070;2024-03-02T15:38:51;12.30;99.90
4518;DHT22;2271;49.464;11.070;2024-03-02T15:41:16;12.30;99.90
4518;DHT22;2271;49.464;11.070;2024-03-02T15:43:42;12.20;99.90
4518;DHT22;2271;49.464;11.070;2024-03-02T15:46:08;12.20;99.90
4518;DHT22;2271;49.464;11.070;2024-03-02T15:48:34;12.10;99.90
4518;DHT22;2271;49.464;11.070;2024-03-02T15:51:00;12.00;99.90
4518;DHT22;2271;49.464;11.070;2024-03-02T15:53:25;11.90;99.90
4518;DHT22;2271;49.464;11.070;2024-03-02T15:55:51;11.80;99.90
4518;DHT22;2271;49.464;11.070;2024-03-02T15:58:17;11.70;99.90
4518;DHT22;2271;49.464;11.070;2024-03-02T16:00:43;11.60;99.90
4518;DHT22;2271;49.464;11.070;2024-03-02T16:03:09;11.40;99.90
4518;DHT22;2271;49.464;11.070;2024-03-02T16:05:34;11.30;99.90